Time;durP1;ratioP1;P1;durP2;ratioP2;P2;SDS_P1;SDS_P2;PMS_P1;PMS_P2;Temp;Humidity;BMP_temperature;BMP_pressure;BME280_temperature;BME280_humidity;BME280_pressure;Samples;Min_cycle;Max_cycle;Signal;HPM_P1;HPM_P2
2023/10/08 00:01:22;;;;;;;10.20;8.73;;;;;;;25.13;55.97;99490.28;2081573;28;20503;-66
2023/10/08 00:02:25;;;;;;;12.65;8.57;;;;;;;25.14;55.64;99489.25;2070947;28;20053;-66
2023/10/08 00:03:29;;;;;;;11.20;8.68;;;;;;;25.15;55.41;99491.75;2075435;28;20053;-66
2023/10/08 00:04:30;;;;;;;10.15;8.73;;;;;;;25.15;55.57;99493.63;2078751;28;20159;-66
2023/10/08 00:05:37;;;;;;;10.75;8.50;;;;;;;25.15;55.87;99494.47;2081081;28;20051;-66
2023/10/08 00:06:38;;;;;;;10.13;8.82;;;;;;;25.17;55.84;99496.97;2076964;28;20061;-65
2023/10/08 00:07:42;;;;;;;12.10;8.60;;;;;;;25.16;56.05;99490.72;2080255;28;20547;-65
2023/10/08 00:08:43;;;;;;;10.45;8.85;;;;;;;25.16;55.57;99490.72;2081211;28;20098;-66
2023/10/08 00:09:46;;;;;;;12.75;9.38;;;;;;;25.18;55.78;99490.47;2078574;28;20462;-66
2023/10/08 00:10:47;;;;;;;11.02;9.20;;;;;;;25.17;55.75;99492.34;2079645;28;20052;-66
2023/10/08 00:11:53;;;;;;;10.75;8.75;;;;;;;25.17;55.60;99489.66;2077346;28;20132;-65
2023/10/08 00:12:55;;;;;;;10.40;9.00;;;;;;;25.15;56.01;99490.91;2076981;28;20049;-66
2023/10/08 00:13:59;;;;;;;12.70;8.93;;;;;;;25.16;55.49;99487.16;2079581;28;21314;-66
2023/10/08 00:15:00;;;;;;;9.65;8.57;;;;;;;25.16;55.80;99492.59;2078288;28;20316;-66
2023/10/08 00:16:01;;;;;;;11.05;8.65;;;;;;;25.15;55.57;99489.03;2078835;28;20130;-65
2023/10/08 00:17:04;;;;;;;9.55;8.45;;;;;;;25.16;55.84;99488.00;2080370;28;20057;-65
2023/10/08 00:18:05;;;;;;;12.02;8.57;;;;;;;25.18;55.30;99483.19;2079023;28;20053;-66
2023/10/08 00:19:13;;;;;;;12.82;8.82;;;;;;;25.19;55.60;99478.56;2080672;28;20065;-65
2023/10/08 00:20:25;;;;;;;10.50;9.05;;;;;;;25.16;55.92;99487.16;2078262;28;20052;-65
2023/10/08 00:21:26;;;;;;;10.48;9.35;;;;;;;25.15;55.38;99493.63;2078525;28;20049;-65
2023/10/08 00:22:29;;;;;;;10.82;7.95;;;;;;;25.17;55.32;99495.06;2079077;28;20045;-66
2023/10/08 00:23:30;;;;;;;11.63;8.93;;;;;;;25.16;55.57;99493.44;2081972;28;20114;-65
2023/10/08 00:24:33;;;;;;;13.07;9.32;;;;;;;25.17;55.75;99492.34;2078973;28;20135;-66
2023/10/08 00:25:40;;;;;;;10.93;8.35;;;;;;;25.16;55.39;99498.84;2079048;28;20045;-65
2023/10/08 00:26:42;;;;;;;9.27;8.38;;;;;;;25.18;55.30;99496.75;2076025;28;20045;-65
2023/10/08 00:27:43;;;;;;;11.07;9.23;;;;;;;25.20;55.76;99499.22;2078528;28;20055;-64
2023/10/08 00:28:47;;;;;;;10.52;9.02;;;;;;;25.19;55.33;99492.97;2084964;28;20470;-64
2023/10/08 00:29:48;;;;;;;9.88;8.80;;;;;;;25.17;55.77;99484.22;2078343;28;20049;-65
2023/10/08 00:30:50;;;;;;;10.32;8.50;;;;;;;25.17;55.91;99483.38;2076267;28;20042;-64
2023/10/08 00:31:51;;;;;;;8.73;7.75;;;;;;;25.16;55.28;99479.84;2078670;28;20056;-64
2023/10/08 00:32:53;;;;;;;11.05;8.07;;;;;;;25.18;55.65;99475.03;2076420;28;20049;-65
2023/10/08 00:33:54;;;;;;;9.38;8.38;;;;;;;25.18;55.70;99471.47;2077712;28;20138;-65
2023/10/08 00:34:56;;;;;;;12.98;9.20;;;;;;;25.18;55.85;99477.75;2078560;28;20132;-65
2023/10/08 00:35:57;;;;;;;10.77;8.95;;;;;;;25.17;55.68;99476.06;2075539;28;20046;-65
2023/10/08 00:36:58;;;;;;;10.43;8.35;;;;;;;25.18;55.37;99477.75;2078410;28;20041;-65
2023/10/08 00:38:00;;;;;;;15.48;9.50;;;;;;;25.16;55.45;99471.72;2081351;28;20057;-65
2023/10/08 00:39:08;;;;;;;10.18;8.13;;;;;;;25.18;55.45;99468.75;2081971;28;20052;-65
2023/10/08 00:40:12;;;;;;;9.45;8.45;;;;;;;25.16;55.34;99479.84;2080127;28;20084;-65
2023/10/08 00:41:15;;;;;;;11.02;8.52;;;;;;;25.18;55.25;99469.59;2076721;28;20114;-65
2023/10/08 00:42:18;;;;;;;10.52;8.57;;;;;;;25.18;55.54;99476.91;2079203;28;20184;-65
2023/10/08 00:43:32;;;;;;;12.25;8.63;;;;;;;25.16;55.45;99479.03;2079846;28;20056;-65
2023/10/08 00:44:38;;;;;;;10.20;7.72;;;;;;;25.16;55.98;99473.59;2077498;28;20126;-65
2023/10/08 00:45:43;;;;;;;10.07;7.95;;;;;;;25.15;55.94;99472.75;2078853;28;20041;-66
2023/10/08 00:46:47;;;;;;;9.60;8.27;;;;;;;25.14;55.93;99468.38;2079130;28;20141;-64
2023/10/08 00:47:52;;;;;;;12.25;8.70;;;;;;;25.15;55.57;99474.63;2083431;28;20569;-65
2023/10/08 00:48:54;;;;;;;10.00;7.95;;;;;;;25.15;55.47;99475.47;2077827;28;20048;-66
2023/10/08 00:50:06;;;;;;;10.02;8.85;;;;;;;25.18;55.39;99476.91;2083329;28;20076;-65
2023/10/08 00:51:24;;;;;;;12.40;9.05;;;;;;;25.15;56.03;99480.88;2082126;28;20057;-64
2023/10/08 00:52:38;;;;;;;9.50;8.40;;;;;;;25.13;55.88;99465.84;2080061;28;20467;-66
2023/10/08 00:53:39;;;;;;;10.18;8.25;;;;;;;25.13;55.48;99472.13;2077655;28;20049;-65
2023/10/08 00:54:51;;;;;;;9.07;8.15;;;;;;;25.14;55.91;99462.97;2076453;28;20487;-64
2023/10/08 00:55:59;;;;;;;13.00;8.85;;;;;;;25.16;55.44;99463.56;2081049;28;20120;-65
2023/10/08 00:57:04;;;;;;;10.20;8.10;;;;;;;25.16;55.69;99469.00;2076719;28;20037;-65
2023/10/08 00:58:11;;;;;;;9.80;8.15;;;;;;;25.15;56.06;99470.03;2076650;28;20890;-66
2023/10/08 00:59:14;;;;;;;11.13;8.38;;;;;;;25.16;55.66;99463.56;2077314;28;20107;-65
2023/10/08 01:00:21;;;;;;;12.13;8.15;;;;;;;25.15;56.02;99461.06;2075538;28;20059;-65
2023/10/08 01:01:23;;;;;;;9.20;7.97;;;;;;;25.16;55.51;99465.44;2075604;28;20080;-66
2023/10/08 01:02:28;;;;;;;9.85;8.40;;;;;;;25.15;55.34;99464.59;2078270;28;20060;-65
2023/10/08 01:03:33;;;;;;;10.43;8.77;;;;;;;25.16;55.36;99458.13;2076113;28;20049;-66
2023/10/08 01:04:34;;;;;;;9.70;7.80;;;;;;;25.16;55.66;99455.41;2079619;28;20045;-65
2023/10/08 01:05:47;;;;;;;9.30;8.13;;;;;;;25.17;55.86;99459.78;2078862;28;20455;-65
2023/10/08 01:06:54;;;;;;;9.88;7.93;;;;;;;25.17;55.81;99459.78;2079283;28;20132;-65
2023/10/08 01:07:56;;;;;;;8.65;7.80;;;;;;;25.15;55.87;99459.16;2078754;28;20049;-64
2023/10/08 01:09:07;;;;;;;10.30;7.85;;;;;;;25.17;55.59;99454.34;2080164;28;20049;-65
2023/10/08 01:10:13;;;;;;;10.38;8.02;;;;;;;25.16;55.29;99454.59;2075202;28;20096;-65
2023/10/08 01:11:17;;;;;;;10.40;7.55;;;;;;;25.17;55.45;99456.25;2076357;28;20045;-66
2023/10/08 01:12:26;;;;;;;11.75;8.68;;;;;;;25.16;55.47;99457.31;2077548;28;20152;-65
2023/10/08 01:13:35;;;;;;;10.20;8.27;;;;;;;25.13;55.58;99455.84;2078610;28;20124;-66
2023/10/08 01:14:42;;;;;;;10.10;9.00;;;;;;;25.14;55.88;99452.09;2077169;28;20052;-65
2023/10/08 01:15:44;;;;;;;10.77;8.07;;;;;;;25.15;55.88;99453.75;2079980;28;20629;-65
2023/10/08 01:16:47;;;;;;;10.20;9.05;;;;;;;25.17;55.43;99462.50;2075021;28;20111;-64
2023/10/08 01:17:52;;;;;;;9.60;8.60;;;;;;;25.18;55.47;99466.88;2077203;28;20102;-64
2023/10/08 01:19:00;;;;;;;12.27;9.32;;;;;;;25.18;55.55;99457.88;2083295;28;20419;-64
2023/10/08 01:20:09;;;;;;;9.30;8.30;;;;;;;25.15;55.79;99467.31;2077614;28;20052;-66
2023/10/08 01:21:17;;;;;;;9.18;7.93;;;;;;;25.13;55.98;99457.72;2078958;28;20049;-66
2023/10/08 01:22:22;;;;;;;10.48;7.60;;;;;;;25.14;55.47;99456.66;2080270;28;20041;-65
2023/10/08 01:23:26;;;;;;;11.55;9.35;;;;;;;25.15;55.55;99463.78;2076494;28;20419;-65
2023/10/08 01:24:32;;;;;;;10.07;8.60;;;;;;;25.15;55.75;99459.16;2080032;28;20060;-65
2023/10/08 01:25:34;;;;;;;9.05;7.63;;;;;;;25.16;55.75;99460.84;2079460;28;20045;-65
2023/10/08 01:26:38;;;;;;;9.05;8.05;;;;;;;25.15;55.92;99470.03;2081422;28;20053;-65
2023/10/08 01:27:39;;;;;;;12.05;8.90;;;;;;;25.16;55.71;99460.03;2081859;28;20061;-65
2023/10/08 01:28:43;;;;;;;8.55;7.43;;;;;;;25.17;55.81;99461.66;2077366;28;20045;-66
2023/10/08 01:29:44;;;;;;;10.45;8.18;;;;;;;25.16;55.37;99452.72;2079920;28;20427;-65
2023/10/08 01:30:46;;;;;;;11.00;8.23;;;;;;;25.17;55.93;99458.97;2076128;28;20072;-65
2023/10/08 01:31:50;;;;;;;8.55;7.63;;;;;;;25.17;55.84;99453.53;2077220;28;20049;-66
2023/10/08 01:32:51;;;;;;;10.77;8.90;;;;;;;25.16;55.37;99460.84;2076248;28;20577;-66
2023/10/08 01:33:56;;;;;;;10.88;9.07;;;;;;;25.17;55.63;99462.50;2077632;28;20053;-66
2023/10/08 01:34:59;;;;;;;10.50;8.20;;;;;;;25.16;55.38;99460.03;2079409;28;20541;-65
2023/10/08 01:36:04;;;;;;;9.50;8.30;;;;;;;25.17;55.74;99454.34;2079119;28;20071;-65
2023/10/08 01:37:08;;;;;;;10.70;7.65;;;;;;;25.16;55.28;99455.41;2076197;28;20049;-64
2023/10/08 01:38:13;;;;;;;9.38;7.85;;;;;;;25.16;55.21;99454.59;2081902;28;20049;-65
2023/10/08 01:39:16;;;;;;;8.75;7.45;;;;;;;25.16;55.60;99454.59;2078739;28;20168;-66
2023/10/08 01:40:18;;;;;;;11.30;8.02;;;;;;;25.14;55.64;99452.09;2079092;28;20466;-66
2023/10/08 01:41:19;;;;;;;11.45;8.55;;;;;;;25.15;55.61;99453.75;2077607;28;20084;-65
2023/10/08 01:42:23;;;;;;;9.05;7.63;;;;;;;25.17;55.20;99454.34;2080080;28;20071;-65
2023/10/08 01:43:27;;;;;;;8.63;7.15;;;;;;;25.16;55.24;99446.44;2079347;28;20117;-65
2023/10/08 01:44:29;;;;;;;9.70;7.65;;;;;;;25.15;55.21;99452.91;2079122;28;20045;-65
2023/10/08 01:45:32;;;;;;;10.70;8.10;;;;;;;25.14;55.79;99441.25;2078740;28;20049;-65
2023/10/08 01:46:32;;;;;;;7.90;6.93;;;;;;;25.15;55.68;99450.19;2079345;28;20610;-65
2023/10/08 01:47:35;;;;;;;9.65;8.40;;;;;;;25.15;55.25;99448.31;2077124;28;20049;-66
2023/10/08 01:48:37;;;;;;;9.25;8.20;;;;;;;25.13;55.23;99445.00;2076980;28;20053;-64
2023/10/08 01:49:40;;;;;;;8.55;7.38;;;;;;;25.13;55.12;99447.69;2082116;28;20444;-66
2023/10/08 01:50:41;;;;;;;8.77;7.40;;;;;;;25.16;55.71;99449.16;2078929;28;20045;-66
2023/10/08 01:51:47;;;;;;;9.45;8.45;;;;;;;25.15;55.23;99448.31;2078585;28;20056;-65
2023/10/08 01:52:48;;;;;;;10.10;8.07;;;;;;;25.15;55.18;99445.59;2081138;28;20076;-65
2023/10/08 01:53:53;;;;;;;9.32;8.25;;;;;;;25.16;55.30;99447.28;2078286;28;20049;-65
2023/10/08 01:54:54;;;;;;;8.75;7.90;;;;;;;25.15;55.08;99437.47;2076793;28;20091;-65
2023/10/08 01:55:56;;;;;;;9.45;8.13;;;;;;;25.18;55.37;99441.59;2081680;28;20049;-65
2023/10/08 01:56:57;;;;;;;8.77;7.88;;;;;;;25.17;55.54;99438.06;2076716;28;20051;-65
2023/10/08 01:57:59;;;;;;;10.63;8.80;;;;;;;25.17;55.15;99439.97;2081424;28;20095;-66
2023/10/08 01:59:00;;;;;;;10.82;8.65;;;;;;;25.17;55.16;99438.06;2076425;28;20064;-65
2023/10/08 02:00:04;;;;;;;8.88;7.72;;;;;;;25.15;55.67;99436.63;2078240;28;20049;-65
2023/10/08 02:01:11;;;;;;;8.95;8.05;;;;;;;25.16;55.11;99441.84;2078255;28;20553;-65
2023/10/08 02:02:15;;;;;;;8.82;7.93;;;;;;;25.15;54.83;99440.16;2078361;28;20049;-65
2023/10/08 02:03:17;;;;;;;8.32;7.53;;;;;;;25.14;55.34;99448.53;2076421;28;20102;-65
2023/10/08 02:04:21;;;;;;;9.65;8.23;;;;;;;25.14;55.38;99441.25;2079593;28;20045;-65
2023/10/08 02:05:22;;;;;;;9.02;7.60;;;;;;;25.14;55.23;99446.66;2078392;28;20060;-65
2023/10/08 02:06:24;;;;;;;9.18;6.78;;;;;;;25.12;55.19;99440.59;2078190;28;20045;-66
2023/10/08 02:07:24;;;;;;;9.25;8.13;;;;;;;25.13;55.39;99436.84;2077470;28;20061;-66
2023/10/08 02:08:27;;;;;;;8.70;7.53;;;;;;;25.15;55.18;99437.47;2077941;28;20092;-66
2023/10/08 02:09:29;;;;;;;8.60;7.72;;;;;;;25.15;54.98;99436.63;2079557;28;20107;-65
2023/10/08 02:10:31;;;;;;;9.20;7.47;;;;;;;25.14;55.14;99441.25;2080525;28;20061;-66
2023/10/08 02:11:43;;;;;;;9.07;7.18;;;;;;;25.14;55.56;99437.66;2075762;28;20053;-65
2023/10/08 02:12:45;;;;;;;10.45;8.00;;;;;;;25.14;55.24;99438.53;2077590;28;20507;-65
2023/10/08 02:13:47;;;;;;;9.27;7.47;;;;;;;25.14;55.03;99438.53;2075577;28;20161;-65
2023/10/08 02:14:48;;;;;;;8.38;6.90;;;;;;;25.16;55.24;99439.13;2077952;28;20038;-66
2023/10/08 02:15:51;;;;;;;8.40;7.53;;;;;;;25.15;55.46;99436.63;2078821;28;20081;-66
2023/10/08 02:16:56;;;;;;;8.25;7.45;;;;;;;25.13;55.46;99436.84;2075952;28;20053;-65
2023/10/08 02:17:58;;;;;;;8.82;7.07;;;;;;;25.15;54.94;99439.34;2080130;28;20053;-66
2023/10/08 02:19:00;;;;;;;9.20;7.47;;;;;;;25.14;54.88;99441.25;2078346;28;20060;-66
2023/10/08 02:20:04;;;;;;;9.30;7.78;;;;;;;25.14;55.47;99430.38;2077029;28;20060;-65
2023/10/08 02:21:06;;;;;;;11.60;8.25;;;;;;;25.16;55.36;99439.13;2078996;28;20057;-66
2023/10/08 02:22:11;;;;;;;9.02;7.75;;;;;;;25.14;55.36;99440.38;2075406;28;20507;-66
2023/10/08 02:23:13;;;;;;;9.02;8.07;;;;;;;25.13;55.51;99439.56;2078210;28;20124;-65
2023/10/08 02:24:14;;;;;;;12.85;8.68;;;;;;;25.15;55.41;99439.34;2074077;28;20057;-66
2023/10/08 02:25:18;;;;;;;9.35;7.30;;;;;;;25.16;55.17;99441.03;2077705;28;20055;-66
2023/10/08 02:26:19;;;;;;;10.27;7.80;;;;;;;25.15;55.27;99439.34;2080359;28;20082;-66
2023/10/08 02:27:21;;;;;;;8.80;7.55;;;;;;;25.14;55.07;99440.38;2076221;28;20152;-66
2023/10/08 02:28:24;;;;;;;10.10;8.20;;;;;;;25.14;55.43;99441.25;2079157;28;20045;-65
2023/10/08 02:29:27;;;;;;;8.98;7.20;;;;;;;25.14;55.04;99437.66;2077359;28;20049;-66
2023/10/08 02:30:28;;;;;;;10.00;7.93;;;;;;;25.11;54.90;99436.22;2083983;28;20055;-66
2023/10/08 02:31:30;;;;;;;9.13;7.45;;;;;;;25.13;55.27;99431.41;2080486;28;21867;-66
2023/10/08 02:32:31;;;;;;;9.13;6.85;;;;;;;25.13;55.27;99439.56;2082115;28;20052;-65
2023/10/08 02:33:34;;;;;;;10.98;8.20;;;;;;;25.13;55.36;99434.13;2079750;28;20539;-65
2023/10/08 02:34:35;;;;;;;9.90;7.63;;;;;;;25.12;54.88;99437.88;2080752;28;20055;-66
2023/10/08 02:35:37;;;;;;;10.35;7.82;;;;;;;25.12;55.34;99435.16;2078976;28;20079;-65
2023/10/08 02:36:40;;;;;;;10.77;8.15;;;;;;;25.14;54.96;99433.09;2079835;28;20439;-65
2023/10/08 02:37:45;;;;;;;8.73;7.40;;;;;;;25.12;55.27;99437.88;2080284;28;20060;-65
2023/10/08 02:38:46;;;;;;;8.65;7.70;;;;;;;25.13;54.99;99438.72;2080255;28;20454;-65
2023/10/08 02:39:48;;;;;;;10.35;8.07;;;;;;;25.13;55.02;99436.00;2083924;28;20052;-65
2023/10/08 02:40:54;;;;;;;9.15;7.95;;;;;;;25.15;54.99;99444.78;2079578;28;20079;-66
2023/10/08 02:41:59;;;;;;;10.15;7.72;;;;;;;25.13;55.08;99442.28;2076584;28;21474;-65
2023/10/08 02:43:00;;;;;;;8.68;7.47;;;;;;;25.12;55.45;99434.34;2080451;28;20476;-66
2023/10/08 02:44:05;;;;;;;9.02;7.20;;;;;;;25.13;54.89;99445.00;2078562;28;20606;-66
2023/10/08 02:45:13;;;;;;;10.23;7.57;;;;;;;25.12;55.04;99446.03;2078470;28;20060;-65
2023/10/08 02:46:15;;;;;;;8.95;8.05;;;;;;;25.13;54.87;99455.00;2077959;28;20052;-66
2023/10/08 02:47:20;;;;;;;8.75;7.72;;;;;;;25.11;55.54;99452.53;2077600;28;20053;-66
2023/10/08 02:48:23;;;;;;;10.38;8.38;;;;;;;25.12;54.99;99453.34;2080772;28;20080;-65
2023/10/08 02:49:23;;;;;;;8.75;7.85;;;;;;;25.14;55.30;99460.25;2078229;28;20061;-66
2023/10/08 02:50:27;;;;;;;8.15;7.30;;;;;;;25.13;55.40;99453.13;2078691;28;20081;-66
2023/10/08 02:51:28;;;;;;;10.45;7.78;;;;;;;25.14;55.12;99453.97;2076552;28;20050;-66
2023/10/08 02:52:30;;;;;;;8.82;7.47;;;;;;;25.12;54.98;99446.03;2081241;28;20051;-66
2023/10/08 02:53:31;;;;;;;9.43;8.07;;;;;;;25.14;54.87;99453.97;2077137;28;20080;-65
2023/10/08 02:54:36;;;;;;;11.20;8.25;;;;;;;25.15;54.77;99451.03;2080410;28;20587;-65
2023/10/08 02:55:42;;;;;;;9.07;6.82;;;;;;;25.14;54.96;99452.09;2078245;28;20140;-65
2023/10/08 02:56:45;;;;;;;10.23;7.70;;;;;;;25.15;54.79;99447.50;2079184;28;20067;-65
2023/10/08 02:57:47;;;;;;;8.88;7.57;;;;;;;25.13;54.80;99450.41;2079304;28;20042;-66
2023/10/08 02:58:51;;;;;;;9.52;8.52;;;;;;;25.11;54.89;99447.09;2079211;28;20053;-66
2023/10/08 02:59:54;;;;;;;8.32;7.07;;;;;;;25.13;55.07;99455.84;2078700;28;20103;-65
2023/10/08 03:00:54;;;;;;;8.02;7.22;;;;;;;25.14;55.36;99453.97;2077601;28;20048;-65
2023/10/08 03:01:56;;;;;;;11.13;8.77;;;;;;;25.14;55.09;99456.66;2077830;28;20125;-66
2023/10/08 03:02:57;;;;;;;8.95;7.57;;;;;;;25.12;55.48;99454.16;2079538;28;20061;-66
2023/10/08 03:04:04;;;;;;;8.57;7.68;;;;;;;25.15;55.21;99448.31;2077719;28;20068;-65
2023/10/08 03:05:08;;;;;;;10.02;8.80;;;;;;;25.12;55.02;99450.63;2081836;28;20520;-66
2023/10/08 03:06:14;;;;;;;9.20;7.10;;;;;;;25.12;55.12;99453.34;2079206;28;20127;-66
2023/10/08 03:07:21;;;;;;;9.80;7.57;;;;;;;25.12;55.13;99448.75;2078847;28;20164;-66
2023/10/08 03:08:22;;;;;;;8.82;7.82;;;;;;;25.11;55.00;99448.97;2077150;28;20073;-65
2023/10/08 03:09:31;;;;;;;9.48;8.02;;;;;;;25.13;55.34;99447.69;2077311;28;20473;-66
2023/10/08 03:10:33;;;;;;;8.13;7.10;;;;;;;25.11;55.22;99452.53;2077868;28;20508;-66
2023/10/08 03:11:37;;;;;;;8.52;7.63;;;;;;;25.12;54.89;99454.16;2077715;28;20049;-66
2023/10/08 03:12:40;;;;;;;8.65;7.60;;;;;;;25.13;54.64;99452.28;2082543;28;20060;-66
2023/10/08 03:13:41;;;;;;;8.85;7.88;;;;;;;25.14;55.25;99449.38;2081464;28;20053;-65
2023/10/08 03:15:00;;;;;;;10.45;6.97;;;;;;;25.12;55.31;99448.75;2075816;28;20053;-65
2023/10/08 03:16:08;;;;;;;10.48;6.88;;;;;;;25.09;55.27;99443.75;2078524;28;20537;-66
2023/10/08 03:17:10;;;;;;;8.68;7.47;;;;;;;25.08;55.25;99444.84;2083192;28;20052;-66
2023/10/08 03:18:14;;;;;;;8.27;7.35;;;;;;;25.10;55.33;99440.00;2079312;28;20048;-66
2023/10/08 03:19:18;;;;;;;9.80;7.90;;;;;;;25.13;54.94;99447.69;2079490;28;20508;-66
2023/10/08 03:20:29;;;;;;;7.63;7.03;;;;;;;25.13;54.59;99441.41;2077877;28;20049;-66
2023/10/08 03:21:48;;;;;;;;;;;;;;;24.99;55.09;99440.78;2078147;28;20065;-66
2023/10/08 03:22:49;;;;;;;7.78;6.97;;;;;;;25.02;55.12;99442.19;2079462;28;19929;-65
2023/10/08 03:23:51;;;;;;;8.05;7.25;;;;;;;25.09;55.22;99448.38;2079834;28;21420;-65
2023/10/08 03:24:56;;;;;;;7.53;6.72;;;;;;;25.09;55.11;99449.19;2078337;28;20041;-66
2023/10/08 03:26:01;;;;;;;8.18;7.25;;;;;;;25.11;54.94;99452.53;2079039;28;20124;-66
2023/10/08 03:27:06;;;;;;;7.90;7.07;;;;;;;25.12;54.82;99453.34;2078720;28;20471;-65
2023/10/08 03:28:09;;;;;;;9.80;8.68;;;;;;;25.10;55.05;99445.44;2079475;28;20424;-66
2023/10/08 03:29:15;;;;;;;9.43;8.02;;;;;;;25.11;54.79;99449.81;2078261;28;20164;-66
2023/10/08 03:30:16;;;;;;;10.18;9.05;;;;;;;25.09;55.08;99454.63;2077607;28;20121;-66
2023/10/08 03:31:19;;;;;;;7.85;6.88;;;;;;;25.11;55.12;99449.81;2078696;28;20049;-65
2023/10/08 03:32:26;;;;;;;10.32;8.25;;;;;;;25.11;54.92;99449.81;2078267;28;20083;-65
2023/10/08 03:33:28;;;;;;;7.45;6.70;;;;;;;25.11;54.74;99444.38;2077823;28;20511;-67
2023/10/08 03:34:34;;;;;;;10.63;7.97;;;;;;;25.10;54.75;99437.31;2078159;28;20057;-66
2023/10/08 03:35:36;;;;;;;10.90;7.55;;;;;;;25.11;55.34;99444.38;2076802;28;20052;-66
2023/10/08 03:36:44;;;;;;;7.97;7.18;;;;;;;25.10;54.89;99444.59;2083913;28;20049;-65
2023/10/08 03:37:50;;;;;;;9.15;7.15;;;;;;;25.11;54.89;99440.84;2079593;28;20098;-65
2023/10/08 03:38:52;;;;;;;9.68;7.60;;;;;;;25.10;55.18;99440.00;2079613;28;20124;-66
2023/10/08 03:40:00;;;;;;;9.02;8.05;;;;;;;25.09;54.90;99437.50;2079759;28;20076;-65
2023/10/08 03:41:03;;;;;;;9.82;7.47;;;;;;;25.09;54.82;99443.75;2081115;28;20108;-66
2023/10/08 03:42:07;;;;;;;8.93;6.75;;;;;;;25.11;54.86;99435.41;2075473;28;20053;-66
2023/10/08 03:43:33;;;;;;;10.80;8.30;;;;;;;25.13;55.36;99436.00;2078804;28;20400;-65
2023/10/08 03:44:32;;;;;;;9.85;8.32;;;;;;;25.07;54.80;99435.00;2075843;28;20058;-66
2023/10/08 03:45:54;;;;;;;9.27;7.25;;;;;;;25.09;55.31;99438.34;2078524;28;20053;-66
2023/10/08 03:46:57;;;;;;;9.32;8.27;;;;;;;25.08;54.91;99433.16;2076528;28;20037;-65
2023/10/08 03:48:05;;;;;;;10.10;7.45;;;;;;;25.09;54.76;99438.34;2080216;28;20136;-66
2023/10/08 03:49:24;;;;;;;10.48;7.20;;;;;;;25.07;54.94;99440.44;2080202;28;20049;-66
2023/10/08 03:50:32;;;;;;;7.40;6.70;;;;;;;25.07;55.30;99440.44;2080652;28;20455;-66
2023/10/08 03:51:39;;;;;;;8.93;7.45;;;;;;;25.06;54.91;99440.69;2081311;28;20065;-66
2023/10/08 03:52:43;;;;;;;8.25;6.53;;;;;;;25.08;55.38;99435.88;2080054;28;20053;-66
2023/10/08 03:53:57;;;;;;;10.25;7.05;;;;;;;25.09;54.83;99437.50;2079868;28;20122;-64
2023/10/08 03:55:13;;;;;;;10.65;7.70;;;;;;;25.06;55.40;99437.97;2078305;28;23414;-65
2023/10/08 03:56:14;;;;;;;10.02;7.80;;;;;;;25.06;55.31;99430.66;2080690;28;20045;-65
2023/10/08 03:57:25;;;;;;;8.35;7.40;;;;;;;25.07;55.20;99440.44;2080636;28;20268;-66
2023/10/08 03:58:31;;;;;;;10.13;8.27;;;;;;;25.07;55.41;99443.16;2080734;28;20107;-66
2023/10/08 03:59:34;;;;;;;13.82;7.93;;;;;;;25.08;54.84;99436.69;2081168;28;20415;-64
2023/10/08 04:00:41;;;;;;;9.00;8.10;;;;;;;25.10;55.33;99440.00;2078595;28;20052;-65
2023/10/08 04:01:42;;;;;;;7.68;6.72;;;;;;;25.08;55.08;99442.13;2080668;28;20063;-65
2023/10/08 04:02:47;;;;;;;8.43;7.53;;;;;;;25.09;54.74;99442.94;2081319;28;20528;-65
2023/10/08 04:05:19;;;;;;;7.55;6.75;;;;;;;25.06;55.44;99435.25;2077490;28;20049;-66
2023/10/08 04:06:22;;;;;;;8.88;7.95;;;;;;;25.07;55.10;99445.03;2076756;28;20045;-64
2023/10/08 04:07:28;;;;;;;10.00;7.28;;;;;;;25.08;54.83;99436.69;2078597;28;20045;-65
2023/10/08 04:08:42;;;;;;;8.52;7.03;;;;;;;25.08;54.79;99436.69;2078257;28;20060;-66
2023/10/08 04:09:45;;;;;;;9.20;7.93;;;;;;;25.08;55.04;99441.28;2075953;28;20522;-65
2023/10/08 04:12:10;;;;;;;8.50;7.53;;;;;;;25.07;55.24;99442.34;2079489;28;20156;-65
2023/10/08 04:13:16;;;;;;;8.32;7.45;;;;;;;25.07;54.93;99440.44;2077551;28;20091;-66
2023/10/08 04:14:18;;;;;;;10.10;7.03;;;;;;;25.06;55.08;99441.50;2079310;28;20059;-66
2023/10/08 04:15:20;;;;;;;8.52;7.00;;;;;;;25.07;55.09;99451.28;2079390;28;20136;-63
2023/10/08 04:16:21;;;;;;;8.82;7.20;;;;;;;25.07;54.90;99435.00;2080878;28;20072;-65
2023/10/08 04:17:23;;;;;;;8.13;6.95;;;;;;;25.07;54.95;99440.44;2078337;28;20132;-66
2023/10/08 04:18:24;;;;;;;8.73;7.75;;;;;;;25.10;55.20;99441.88;2077518;28;20049;-65
2023/10/08 04:19:26;;;;;;;8.23;7.32;;;;;;;25.10;54.74;99444.59;2075344;28;20053;-65
2023/10/08 04:20:38;;;;;;;8.73;7.43;;;;;;;25.09;54.90;99451.91;2077956;28;20656;-66
2023/10/08 04:21:41;;;;;;;8.05;6.53;;;;;;;25.07;54.91;99440.44;2079497;28;20056;-66
2023/10/08 04:22:43;;;;;;;7.88;7.07;;;;;;;25.10;54.79;99450.03;2073743;28;20057;-66
2023/10/08 04:23:44;;;;;;;11.98;8.27;;;;;;;25.12;55.02;99453.34;2079172;28;20049;-65
2023/10/08 04:24:47;;;;;;;8.38;7.43;;;;;;;25.10;55.05;99456.31;2076544;28;20068;-65
2023/10/08 04:25:54;;;;;;;12.15;7.72;;;;;;;25.08;54.75;99452.16;2077464;28;20072;-65
2023/10/08 04:26:58;;;;;;;9.75;7.03;;;;;;;25.08;54.98;99457.59;2081750;28;20045;-65
2023/10/08 04:28:01;;;;;;;13.18;7.47;;;;;;;25.07;55.20;99455.91;2076921;28;20141;-65
2023/10/08 04:29:02;;;;;;;7.75;6.97;;;;;;;25.08;54.97;99458.41;2076580;28;20053;-65
2023/10/08 04:30:10;;;;;;;8.73;7.57;;;;;;;25.10;55.10;99458.16;2079391;28;20068;-65
2023/10/08 04:31:16;;;;;;;9.23;6.88;;;;;;;25.08;54.91;99458.41;2077005;28;20049;-65
2023/10/08 04:32:24;;;;;;;8.57;7.60;;;;;;;25.08;54.90;99461.13;2075810;28;20049;-66
2023/10/08 04:33:25;;;;;;;9.13;7.28;;;;;;;25.08;54.77;99455.69;2078943;28;20048;-66
2023/10/08 04:34:27;;;;;;;8.00;6.95;;;;;;;25.08;54.79;99460.28;2077149;28;20576;-66
2023/10/08 04:35:30;;;;;;;7.63;6.65;;;;;;;25.07;55.12;99459.44;2078243;28;20048;-66
2023/10/08 04:36:32;;;;;;;8.45;6.80;;;;;;;25.06;55.36;99460.50;2080998;28;20040;-66
2023/10/08 04:37:34;;;;;;;8.20;6.85;;;;;;;25.07;55.16;99462.16;2077540;28;20623;-65
2023/10/08 04:38:39;;;;;;;8.70;7.47;;;;;;;25.08;55.12;99458.41;2080933;28;20095;-65
2023/10/08 04:39:47;;;;;;;9.27;7.70;;;;;;;25.08;54.63;99452.97;2079843;28;20076;-66
2023/10/08 04:40:48;;;;;;;7.90;7.13;;;;;;;25.07;54.69;99451.28;2076734;28;20076;-66
2023/10/08 04:41:53;;;;;;;9.45;7.30;;;;;;;25.07;54.77;99456.72;2079079;28;21436;-65
2023/10/08 04:42:55;;;;;;;7.65;6.93;;;;;;;25.08;55.06;99455.69;2078208;28;20053;-65
2023/10/08 04:43:56;;;;;;;9.30;7.65;;;;;;;25.10;55.06;99455.44;2077656;28;20137;-65
2023/10/08 04:44:58;;;;;;;7.93;7.13;;;;;;;25.08;55.10;99452.16;2081084;28;20701;-65
2023/10/08 04:46:05;;;;;;;9.63;7.80;;;;;;;25.09;54.93;99459.22;2076343;28;20080;-65
2023/10/08 04:47:09;;;;;;;8.65;7.18;;;;;;;25.07;54.72;99451.28;2077046;28;20423;-65
2023/10/08 04:48:10;;;;;;;10.80;8.05;;;;;;;25.07;55.15;99451.28;2081228;28;20056;-66
2023/10/08 04:49:25;;;;;;;7.65;6.70;;;;;;;25.07;54.84;99451.28;2077510;28;20123;-66
2023/10/08 04:50:30;;;;;;;7.82;6.93;;;;;;;25.04;55.40;99446.31;2079417;28;20056;-66
2023/10/08 04:51:43;;;;;;;7.93;7.13;;;;;;;25.05;54.93;99442.56;2079200;28;20048;-66
2023/10/08 04:52:46;;;;;;;8.00;7.00;;;;;;;25.06;55.22;99446.94;2078356;28;20049;-65
2023/10/08 04:53:47;;;;;;;9.43;7.55;;;;;;;25.09;54.75;99442.94;2078915;28;20529;-65
2023/10/08 04:54:51;;;;;;;8.55;6.93;;;;;;;25.07;54.87;99451.28;2075614;28;20580;-65
2023/10/08 04:55:54;;;;;;;10.50;7.97;;;;;;;25.07;54.99;99443.16;2078340;28;20085;-65
2023/10/08 04:56:57;;;;;;;10.45;7.35;;;;;;;25.07;54.97;99447.75;2078350;28;20056;-65
2023/10/08 04:58:02;;;;;;;9.40;7.65;;;;;;;25.07;54.78;99439.63;2080171;28;20048;-66
2023/10/08 04:59:05;;;;;;;8.63;6.65;;;;;;;25.08;54.59;99444.00;2077850;28;20523;-65
2023/10/08 05:00:14;;;;;;;10.63;7.18;;;;;;;25.09;55.17;99446.47;2079299;28;20041;-66
2023/10/08 05:01:17;;;;;;;7.85;7.00;;;;;;;25.05;54.85;99448.00;2077115;28;20056;-66
2023/10/08 05:02:34;;;;;;;9.95;7.50;;;;;;;25.08;54.92;99441.28;2080592;28;21650;-66
2023/10/08 05:03:43;;;;;;;8.35;7.20;;;;;;;25.07;54.87;99436.91;2077087;28;20452;-66
2023/10/08 05:05:07;;;;;;;9.20;7.22;;;;;;;25.05;55.15;99437.16;2079438;28;20431;-67